This is the latest recevied weather packets stored in our database for station/object KF6ILA. If no packets are shown the sender has not sent any weather packets the latest 10 day(s).
| Time | Temp. | Humidity | Pressure | Rain* | Wind** | Luminosity | Snow |
|---|---|---|---|---|---|---|---|
| 1787669524 | 28.33° C | 35% | 1019.3 hPa | 0 mm | - | 283 W/m² | - |
| 1787669227 | 27.78° C | 34% | 1019.2 hPa | 0 mm | - | 264 W/m² | - |
| 1787668930 | 27.78° C | 37% | 1019.2 hPa | 0 mm | - | 246 W/m² | - |
| 1787668336 | 27.22° C | 36% | 1019.1 hPa | 0 mm | - | 211 W/m² | - |
| 1787668039 | 26.67° C | 36% | 1019.1 hPa | 0 mm | - | 193 W/m² | - |
| 1787667445 | 25.56° C | 37% | 1019 hPa | 0 mm | - | 155 W/m² | - |
| 1787666554 | 25° C | 39% | 1018.9 hPa | 0 mm | - | 91 W/m² | - |
| 1787665960 | 25° C | 38% | 1018.9 hPa | 0 mm | - | 56 W/m² | - |
| 1787665663 | 25° C | 38% | 1018.8 hPa | 0 mm | - | 42 W/m² | - |
| 1787665367 | 25° C | - | - | 0 mm | - | - | - |
| 1787664178 | 25° C | 38% | 1018.7 hPa | 0 mm | - | 7 W/m² | - |
| 1787663881 | 25° C | 38% | 1018.7 hPa | 0 mm | - | 5 W/m² | - |
| 1787663584 | 25° C | 39% | 1018.5 hPa | 0 mm | - | 0 W/m² | - |
| 1787663287 | 25° C | 38% | 1018.3 hPa | 0 mm | - | 0 W/m² | - |
| 1787662990 | 25° C | 38% | 1018.2 hPa | 0 mm | - | 0 W/m² | - |
| 1787662693 | 25° C | 39% | 1018.1 hPa | 0 mm | - | 0 W/m² | - |
| 1787662396 | 25° C | 39% | 1018 hPa | 0 mm | - | 0 W/m² | - |
| 1787661802 | 25.56° C | 38% | 1017.9 hPa | 0 mm | - | 0 W/m² | - |
| 1787661505 | 25.56° C | 37% | 1018 hPa | 0 mm | - | 0 W/m² | - |
| 1787661208 | 25.56° C | 37% | 1018 hPa | 0 mm | - | 0 W/m² | - |
| 1787660911 | 25.56° C | 36% | 1018 hPa | 0 mm | - | 0 W/m² | - |
| 1787660614 | 25.56° C | 37% | 1017.9 hPa | 0 mm | - | 0 W/m² | - |
| 1787660020 | 25.56° C | 36% | 1018 hPa | 0 mm | - | 0 W/m² | - |
| 1787659723 | 25.56° C | 35% | 1018 hPa | 0 mm | - | 0 W/m² | - |
| 1787659426 | 25.56° C | 35% | 1018.1 hPa | 0 mm | - | 0 W/m² | - |
* Rain latest hour (hover to see other rain measurements)
** Current wind speed in m/s (hover to see current wind gust speed)